createdAt,value
2023-07-18T09:07:28.087Z,27.75
2023-07-18T11:15:07.559Z,23.60
2023-07-18T11:22:38.697Z,22.00
2023-07-18T11:26:18.000Z,22.70
2023-07-18T11:34:08.017Z,21.56
2023-07-18T11:37:43.431Z,21.68
2023-07-18T11:54:21.737Z,20.79
2023-07-18T11:58:03.110Z,20.22
2023-07-18T12:01:47.343Z,20.38
2023-07-18T12:05:28.337Z,20.15
2023-07-18T12:13:09.719Z,20.88
2023-07-18T12:16:41.944Z,19.97
2023-07-18T12:20:16.330Z,21.33
2023-07-18T12:24:04.432Z,20.62
2023-07-18T12:27:51.863Z,19.66
2023-07-18T12:35:06.006Z,20.81
2023-07-18T12:42:56.380Z,22.88
2023-07-18T12:50:44.840Z,24.40
2023-07-18T12:58:42.920Z,25.71
2023-07-18T13:10:15.447Z,26.31
2023-07-18T13:14:44.175Z,26.51
2023-07-18T13:26:11.115Z,28.59
2023-07-18T13:30:00.581Z,27.56
2023-07-18T13:34:00.101Z,27.21
2023-07-18T13:37:38.672Z,28.15
2023-07-18T13:41:25.634Z,27.19
2023-07-18T13:44:46.497Z,28.32
2023-07-18T13:48:10.698Z,27.43
2023-07-18T13:51:40.367Z,27.51
2023-07-18T13:55:20.295Z,28.65
2023-07-18T13:58:39.882Z,28.81
2023-07-18T14:02:16.052Z,27.60
2023-07-18T14:05:47.065Z,27.85
2023-07-18T14:09:25.722Z,28.48
2023-07-18T14:13:00.405Z,28.70
2023-07-18T14:16:31.260Z,28.79
2023-07-18T14:19:52.030Z,29.42
2023-07-18T14:23:09.512Z,29.06
2023-07-18T14:26:42.004Z,28.69
2023-07-18T14:29:56.972Z,29.96
2023-07-18T14:33:29.715Z,28.49
2023-07-18T14:37:08.873Z,29.42
2023-07-18T14:40:41.391Z,28.15
2023-07-18T14:44:17.101Z,29.68
2023-07-18T14:47:52.490Z,28.85
2023-07-18T14:51:17.804Z,30.35
2023-07-18T14:54:44.775Z,29.41
2023-07-18T14:58:34.258Z,29.33
2023-07-18T15:01:57.308Z,30.50
2023-07-18T15:05:44.721Z,30.79
2023-07-18T15:09:01.608Z,30.20
2023-07-18T15:12:42.778Z,29.33
2023-07-18T15:16:02.976Z,30.39
2023-07-18T15:19:39.342Z,29.70
2023-07-18T15:22:59.645Z,29.75
2023-07-18T15:26:22.797Z,30.54
2023-07-18T15:30:01.093Z,29.13
2023-07-18T15:33:27.263Z,29.80
2023-07-18T15:36:45.185Z,29.72
2023-07-18T15:40:29.201Z,29.78
2023-07-18T15:43:47.660Z,29.88
2023-07-18T15:47:20.541Z,29.28
2023-07-18T15:50:38.976Z,29.71
2023-07-18T15:54:17.992Z,28.32
2023-07-18T15:57:37.852Z,29.19
2023-07-18T16:01:12.288Z,28.80
2023-07-18T16:04:44.749Z,28.47
2023-07-18T16:08:18.577Z,28.45
2023-07-18T16:11:35.837Z,29.13
2023-07-18T16:14:56.779Z,30.18
2023-07-18T16:18:15.057Z,31.15
2023-07-18T16:21:49.789Z,31.25
2023-07-18T16:25:28.072Z,31.73
2023-07-18T16:29:12.741Z,30.81
2023-07-18T16:33:42.605Z,30.92
2023-07-18T16:45:40.538Z,31.74
2023-07-18T16:58:27.473Z,34.60
2023-07-18T17:01:53.945Z,34.99
2023-07-18T17:05:16.578Z,35.06
2023-07-18T17:08:58.382Z,35.70
2023-07-18T17:12:29.222Z,37.17
2023-07-18T17:16:06.079Z,36.66
2023-07-18T17:20:05.127Z,37.07
2023-07-18T17:23:28.784Z,38.92
2023-07-18T17:27:17.351Z,37.44
2023-07-18T17:31:13.003Z,38.20
2023-07-18T17:34:57.879Z,38.31
2023-07-18T17:38:46.873Z,38.82
2023-07-18T17:43:02.917Z,42.50
2023-07-18T17:46:27.543Z,42.40
2023-07-18T17:50:07.958Z,40.14
2023-07-18T17:53:37.478Z,41.46
2023-07-18T17:57:21.830Z,44.89
2023-07-18T18:01:28.518Z,42.93
2023-07-18T18:05:35.230Z,43.01
2023-07-18T18:08:38.264Z,43.29
2023-07-18T18:12:29.635Z,43.08
2023-07-18T18:16:23.739Z,43.82
2023-07-18T18:19:47.893Z,44.37
2023-07-18T18:23:36.143Z,44.13
2023-07-18T18:27:13.003Z,44.48
2023-07-18T18:31:30.216Z,45.25
2023-07-18T18:35:17.054Z,45.40
2023-07-18T18:38:48.972Z,45.66
2023-07-18T18:42:32.022Z,47.80
2023-07-18T18:46:38.325Z,48.76
2023-07-18T18:50:17.230Z,50.63
2023-07-18T18:55:18.286Z,48.20
2023-07-18T18:58:41.877Z,49.17
2023-07-18T19:06:00.649Z,49.24
2023-07-18T19:13:20.613Z,50.42
2023-07-18T19:17:06.853Z,50.78
2023-07-18T19:20:26.828Z,52.03
2023-07-18T19:24:17.025Z,50.22
2023-07-18T19:32:10.777Z,51.54
2023-07-18T19:35:57.037Z,52.98
2023-07-18T19:45:20.243Z,53.10
2023-07-18T19:48:33.702Z,55.44
2023-07-18T19:52:00.722Z,55.97
2023-07-18T19:55:57.697Z,57.10
2023-07-18T20:00:00.484Z,57.70
2023-07-18T20:04:00.803Z,58.60
2023-07-18T20:07:36.714Z,58.57
2023-07-18T20:11:31.031Z,59.95
2023-07-18T20:15:16.667Z,60.24
2023-07-18T20:19:07.717Z,60.98
2023-07-18T20:22:49.578Z,58.41
2023-07-18T20:26:59.602Z,58.99
2023-07-18T20:30:43.206Z,59.68
2023-07-18T20:34:08.192Z,58.72
2023-07-18T20:37:34.722Z,57.57
2023-07-18T20:41:10.760Z,57.30
2023-07-18T20:44:46.406Z,59.42
2023-07-18T20:48:44.023Z,58.92
2023-07-18T20:52:56.397Z,60.03
2023-07-18T20:57:05.215Z,60.14
2023-07-18T21:01:07.677Z,60.92
2023-07-18T21:04:45.205Z,59.62
2023-07-18T21:12:11.097Z,61.61
2023-07-18T21:15:53.632Z,61.93
2023-07-18T21:19:36.842Z,62.54
2023-07-18T21:23:28.032Z,62.91
2023-07-18T21:31:03.894Z,62.47
2023-07-18T21:35:14.577Z,63.73
2023-07-18T21:38:40.058Z,62.39
2023-07-18T21:42:42.710Z,63.11
2023-07-18T21:46:18.537Z,63.10
2023-07-18T21:49:43.235Z,63.36
2023-07-18T21:53:28.083Z,64.03
2023-07-18T21:58:02.319Z,65.12
2023-07-18T22:01:30.219Z,66.41
2023-07-18T22:04:55.445Z,67.72
2023-07-18T22:08:22.943Z,68.39
2023-07-18T22:12:32.310Z,67.35
2023-07-18T22:16:05.742Z,68.87
2023-07-18T22:19:44.548Z,68.58
2023-07-18T22:23:47.530Z,69.20
2023-07-18T22:27:27.134Z,69.87
2023-07-18T22:31:27.746Z,69.22
2023-07-18T22:35:15.946Z,69.09
2023-07-18T22:38:41.514Z,70.93
2023-07-18T22:42:17.297Z,71.04
2023-07-18T22:45:44.102Z,70.75
2023-07-18T22:49:27.074Z,71.77
2023-07-18T22:52:53.600Z,72.20
2023-07-18T22:56:08.211Z,72.98
2023-07-18T22:59:34.055Z,72.85
2023-07-18T23:03:02.416Z,73.85
2023-07-18T23:06:31.472Z,74.20
2023-07-18T23:09:54.400Z,74.03
2023-07-18T23:13:16.832Z,75.37
2023-07-18T23:16:37.183Z,75.66
2023-07-18T23:20:08.676Z,75.40
2023-07-18T23:23:31.064Z,76.50
2023-07-18T23:27:08.683Z,76.23
2023-07-18T23:30:44.263Z,76.16
2023-07-18T23:34:21.373Z,76.26
2023-07-18T23:37:41.233Z,77.35
2023-07-18T23:41:17.868Z,76.71
2023-07-18T23:44:41.502Z,77.88
2023-07-18T23:48:11.806Z,77.12
2023-07-18T23:51:40.386Z,76.91
2023-07-18T23:55:26.810Z,77.68
2023-07-18T23:59:05.467Z,78.35
